sensor_id;sensor_type;location;lat;lon;timestamp;pressure;altitude;pressure_sealevel;temperature;humidity
75945;BME280;64628;50.104;14.614;2022-10-26T00:00:44;98945.54;;;10.82;55.79
75945;BME280;64628;50.104;14.614;2022-10-26T00:03:09;98944.79;;;10.68;55.77
75945;BME280;64628;50.104;14.614;2022-10-26T00:05:35;98948.91;;;10.69;55.99
75945;BME280;64628;50.104;14.614;2022-10-26T00:08:00;98952.35;;;10.67;56.07
75945;BME280;64628;50.104;14.614;2022-10-26T00:10:25;98949.20;;;10.66;56.02
75945;BME280;64628;50.104;14.614;2022-10-26T00:12:51;98950.02;;;10.85;56.15
75945;BME280;64628;50.104;14.614;2022-10-26T00:15:17;98950.00;;;10.79;55.70
75945;BME280;64628;50.104;14.614;2022-10-26T00:17:42;98957.06;;;10.69;55.87
75945;BME280;64628;50.104;14.614;2022-10-26T00:20:08;98964.42;;;10.63;55.91
75945;BME280;64628;50.104;14.614;2022-10-26T00:22:34;98969.06;;;11.05;55.48
75945;BME280;64628;50.104;14.614;2022-10-26T00:24:59;98969.12;;;10.69;55.62
75945;BME280;64628;50.104;14.614;2022-10-26T00:27:24;98968.94;;;10.63;55.72
75945;BME280;64628;50.104;14.614;2022-10-26T00:29:50;98967.37;;;10.53;55.85
75945;BME280;64628;50.104;14.614;2022-10-26T00:32:15;98967.40;;;10.57;55.67
75945;BME280;64628;50.104;14.614;2022-10-26T00:34:40;98967.19;;;10.71;55.62
75945;BME280;64628;50.104;14.614;2022-10-26T00:37:06;98967.39;;;10.69;55.59
75945;BME280;64628;50.104;14.614;2022-10-26T00:39:31;98960.57;;;10.38;55.70
75945;BME280;64628;50.104;14.614;2022-10-26T00:41:56;98963.59;;;10.62;55.64
75945;BME280;64628;50.104;14.614;2022-10-26T00:46:47;98968.97;;;10.61;55.25
75945;BME280;64628;50.104;14.614;2022-10-26T00:49:14;98966.39;;;11.10;55.02
75945;BME280;64628;50.104;14.614;2022-10-26T00:51:41;98965.91;;;10.68;55.33
75945;BME280;64628;50.104;14.614;2022-10-26T00:54:06;98961.72;;;10.24;55.24
75945;BME280;64628;50.104;14.614;2022-10-26T00:56:30;98962.18;;;10.38;55.25
75945;BME280;64628;50.104;14.614;2022-10-26T00:58:55;98962.86;;;10.28;55.39
75945;BME280;64628;50.104;14.614;2022-10-26T01:01:20;98960.48;;;10.21;55.17
75945;BME280;64628;50.104;14.614;2022-10-26T01:03:45;98960.05;;;10.45;55.19
75945;BME280;64628;50.104;14.614;2022-10-26T01:06:11;98960.17;;;10.13;54.77
75945;BME280;64628;50.104;14.614;2022-10-26T01:08:36;98958.60;;;10.06;55.08
75945;BME280;64628;50.104;14.614;2022-10-26T01:11:02;98960.78;;;10.31;54.91
75945;BME280;64628;50.104;14.614;2022-10-26T01:13:28;98957.72;;;10.31;55.39
75945;BME280;64628;50.104;14.614;2022-10-26T01:16:09;98954.94;;;9.91;54.53
75945;BME280;64628;50.104;14.614;2022-10-26T01:18:25;98960.85;;;10.05;54.63
75945;BME280;64628;50.104;14.614;2022-10-26T01:21:04;98956.28;;;9.46;54.81
75945;BME280;64628;50.104;14.614;2022-10-26T01:23:15;98957.14;;;9.91;55.12
75945;BME280;64628;50.104;14.614;2022-10-26T01:25:48;98951.84;;;9.86;55.58
75945;BME280;64628;50.104;14.614;2022-10-26T01:28:00;98948.17;;;9.62;55.46
75945;BME280;64628;50.104;14.614;2022-10-26T01:30:29;98946.29;;;9.81;54.66
75945;BME280;64628;50.104;14.614;2022-10-26T01:35:18;98947.25;;;9.39;54.79
75945;BME280;64628;50.104;14.614;2022-10-26T01:37:46;98948.83;;;9.58;54.14
75945;BME280;64628;50.104;14.614;2022-10-26T01:40:12;98945.95;;;9.44;54.93
75945;BME280;64628;50.104;14.614;2022-10-26T01:42:34;98943.91;;;9.36;54.71
75945;BME280;64628;50.104;14.614;2022-10-26T01:45:01;98944.15;;;9.30;54.38
75945;BME280;64628;50.104;14.614;2022-10-26T01:47:23;98943.90;;;9.33;55.68
75945;BME280;64628;50.104;14.614;2022-10-26T01:49:51;98941.38;;;9.26;54.97
75945;BME280;64628;50.104;14.614;2022-10-26T01:52:13;98938.45;;;9.73;54.92
75945;BME280;64628;50.104;14.614;2022-10-26T01:54:38;98936.21;;;9.47;54.94
75945;BME280;64628;50.104;14.614;2022-10-26T01:57:05;98934.17;;;9.22;54.60
75945;BME280;64628;50.104;14.614;2022-10-26T01:59:37;98935.87;;;9.17;54.42
75945;BME280;64628;50.104;14.614;2022-10-26T02:02:10;98935.99;;;9.19;54.96
75945;BME280;64628;50.104;14.614;2022-10-26T02:04:30;98935.99;;;9.08;55.57
75945;BME280;64628;50.104;14.614;2022-10-26T02:06:51;98932.44;;;9.18;55.76
75945;BME280;64628;50.104;14.614;2022-10-26T02:09:17;98928.51;;;9.13;55.16
75945;BME280;64628;50.104;14.614;2022-10-26T02:11:39;98928.10;;;9.07;54.75
75945;BME280;64628;50.104;14.614;2022-10-26T02:14:08;98925.79;;;9.33;54.71
75945;BME280;64628;50.104;14.614;2022-10-26T02:16:34;98931.81;;;8.97;55.38
75945;BME280;64628;50.104;14.614;2022-10-26T02:18:58;98935.35;;;9.42;55.87
75945;BME280;64628;50.104;14.614;2022-10-26T02:21:19;98933.73;;;8.95;56.01
75945;BME280;64628;50.104;14.614;2022-10-26T02:23:45;98933.83;;;8.95;55.80
75945;BME280;64628;50.104;14.614;2022-10-26T02:26:10;98931.68;;;8.95;55.83
75945;BME280;64628;50.104;14.614;2022-10-26T02:28:37;98932.31;;;9.46;55.98
75945;BME280;64628;50.104;14.614;2022-10-26T02:31:01;98927.98;;;9.17;56.23
75945;BME280;64628;50.104;14.614;2022-10-26T02:33:27;98922.16;;;9.14;56.04
75945;BME280;64628;50.104;14.614;2022-10-26T02:35:51;98922.82;;;9.28;55.01
75945;BME280;64628;50.104;14.614;2022-10-26T02:38:17;98921.45;;;8.92;54.83
75945;BME280;64628;50.104;14.614;2022-10-26T02:40:41;98918.49;;;8.89;55.10
75945;BME280;64628;50.104;14.614;2022-10-26T02:43:10;98917.17;;;9.35;55.26
75945;BME280;64628;50.104;14.614;2022-10-26T02:45:35;98923.04;;;9.35;55.16
75945;BME280;64628;50.104;14.614;2022-10-26T02:47:58;98919.81;;;9.13;55.43
75945;BME280;64628;50.104;14.614;2022-10-26T02:50:28;98922.96;;;8.94;55.95
75945;BME280;64628;50.104;14.614;2022-10-26T02:52:52;98923.02;;;9.00;56.15
75945;BME280;64628;50.104;14.614;2022-10-26T02:55:19;98921.40;;;8.96;56.20
75945;BME280;64628;50.104;14.614;2022-10-26T02:57:41;98924.15;;;8.94;56.22
75945;BME280;64628;50.104;14.614;2022-10-26T03:00:06;98921.68;;;9.13;56.06
75945;BME280;64628;50.104;14.614;2022-10-26T03:02:30;98922.61;;;9.34;55.94
75945;BME280;64628;50.104;14.614;2022-10-26T03:05:05;98920.36;;;9.08;55.99
75945;BME280;64628;50.104;14.614;2022-10-26T03:07:22;98920.10;;;8.83;55.68
75945;BME280;64628;50.104;14.614;2022-10-26T03:09:48;98922.32;;;9.21;55.17
75945;BME280;64628;50.104;14.614;2022-10-26T03:12:12;98924.40;;;8.71;55.12
75945;BME280;64628;50.104;14.614;2022-10-26T03:14:37;98925.21;;;8.81;54.74
75945;BME280;64628;50.104;14.614;2022-10-26T03:17:03;98923.92;;;9.02;55.09
75945;BME280;64628;50.104;14.614;2022-10-26T03:19:28;98921.71;;;8.52;54.91
75945;BME280;64628;50.104;14.614;2022-10-26T03:21:53;98923.35;;;8.90;54.86
75945;BME280;64628;50.104;14.614;2022-10-26T03:24:18;98926.05;;;8.81;54.65
75945;BME280;64628;50.104;14.614;2022-10-26T03:26:44;98930.25;;;8.48;54.71
75945;BME280;64628;50.104;14.614;2022-10-26T03:29:09;98928.84;;;8.68;54.83
75945;BME280;64628;50.104;14.614;2022-10-26T03:31:35;98933.22;;;8.60;54.84
75945;BME280;64628;50.104;14.614;2022-10-26T03:34:00;98932.59;;;8.50;54.82
75945;BME280;64628;50.104;14.614;2022-10-26T03:36:25;98928.06;;;8.45;54.82
75945;BME280;64628;50.104;14.614;2022-10-26T03:38:51;98927.73;;;8.42;54.87
75945;BME280;64628;50.104;14.614;2022-10-26T03:41:16;98931.20;;;8.37;54.88
75945;BME280;64628;50.104;14.614;2022-10-26T03:43:42;98928.01;;;8.51;55.21
75945;BME280;64628;50.104;14.614;2022-10-26T03:46:07;98930.53;;;8.26;55.13
75945;BME280;64628;50.104;14.614;2022-10-26T03:48:32;98934.48;;;8.23;55.20
75945;BME280;64628;50.104;14.614;2022-10-26T03:50:58;98934.62;;;8.38;55.11
75945;BME280;64628;50.104;14.614;2022-10-26T03:53:23;98937.66;;;8.35;55.15
75945;BME280;64628;50.104;14.614;2022-10-26T03:55:48;98938.00;;;8.13;55.21
75945;BME280;64628;50.104;14.614;2022-10-26T03:58:13;98934.05;;;8.05;55.35
75945;BME280;64628;50.104;14.614;2022-10-26T04:00:39;98930.85;;;8.04;55.35
75945;BME280;64628;50.104;14.614;2022-10-26T04:03:04;98936.19;;;8.05;55.19
75945;BME280;64628;50.104;14.614;2022-10-26T04:05:30;98938.00;;;8.22;55.36
75945;BME280;64628;50.104;14.614;2022-10-26T04:07:57;98937.34;;;8.02;55.73
75945;BME280;64628;50.104;14.614;2022-10-26T04:10:21;98942.29;;;8.02;55.31
75945;BME280;64628;50.104;14.614;2022-10-26T04:12:47;98941.33;;;8.00;55.23
75945;BME280;64628;50.104;14.614;2022-10-26T04:15:12;98943.96;;;8.02;55.06
75945;BME280;64628;50.104;14.614;2022-10-26T04:17:38;98945.90;;;8.28;55.19
75945;BME280;64628;50.104;14.614;2022-10-26T04:20:04;98950.19;;;8.50;55.14
75945;BME280;64628;50.104;14.614;2022-10-26T04:22:28;98953.83;;;7.99;55.06
75945;BME280;64628;50.104;14.614;2022-10-26T04:24:54;98955.79;;;8.24;55.16
75945;BME280;64628;50.104;14.614;2022-10-26T04:27:19;98956.32;;;8.19;55.39
75945;BME280;64628;50.104;14.614;2022-10-26T04:29:44;98959.24;;;7.94;55.50
75945;BME280;64628;50.104;14.614;2022-10-26T04:32:09;98960.45;;;8.25;55.95
75945;BME280;64628;50.104;14.614;2022-10-26T04:34:35;98962.89;;;8.08;55.89
75945;BME280;64628;50.104;14.614;2022-10-26T04:37:00;98967.75;;;8.09;55.56
75945;BME280;64628;50.104;14.614;2022-10-26T04:39:26;98969.40;;;8.08;55.35
75945;BME280;64628;50.104;14.614;2022-10-26T04:41:53;98970.03;;;8.02;55.32
75945;BME280;64628;50.104;14.614;2022-10-26T04:44:21;98969.85;;;8.00;55.22
75945;BME280;64628;50.104;14.614;2022-10-26T04:46:43;98972.19;;;8.20;55.24
75945;BME280;64628;50.104;14.614;2022-10-26T04:49:08;98969.10;;;7.92;54.98
75945;BME280;64628;50.104;14.614;2022-10-26T04:51:34;98970.39;;;7.90;54.97
75945;BME280;64628;50.104;14.614;2022-10-26T04:53:59;98968.67;;;7.87;54.91
75945;BME280;64628;50.104;14.614;2022-10-26T04:56:24;98965.81;;;8.14;55.37
75945;BME280;64628;50.104;14.614;2022-10-26T04:58:55;98962.71;;;8.09;55.20
75945;BME280;64628;50.104;14.614;2022-10-26T05:01:15;98960.90;;;8.09;55.10
75945;BME280;64628;50.104;14.614;2022-10-26T05:03:40;98963.74;;;7.87;54.99
75945;BME280;64628;50.104;14.614;2022-10-26T05:06:06;98965.96;;;7.77;54.97
75945;BME280;64628;50.104;14.614;2022-10-26T05:08:31;98967.09;;;7.94;54.91
75945;BME280;64628;50.104;14.614;2022-10-26T05:11:02;98965.62;;;7.90;55.34
75945;BME280;64628;50.104;14.614;2022-10-26T05:13:21;98962.83;;;7.58;54.98
75945;BME280;64628;50.104;14.614;2022-10-26T05:15:47;98968.33;;;7.77;54.84
75945;BME280;64628;50.104;14.614;2022-10-26T05:18:12;98969.14;;;7.51;55.03
75945;BME280;64628;50.104;14.614;2022-10-26T05:20:37;98968.92;;;7.65;55.21
75945;BME280;64628;50.104;14.614;2022-10-26T05:23:04;98967.36;;;7.85;55.00
75945;BME280;64628;50.104;14.614;2022-10-26T05:25:29;98963.19;;;7.79;54.94
75945;BME280;64628;50.104;14.614;2022-10-26T05:27:56;98961.50;;;7.46;55.11
75945;BME280;64628;50.104;14.614;2022-10-26T05:30:18;98963.29;;;7.47;54.96
75945;BME280;64628;50.104;14.614;2022-10-26T05:32:43;98964.27;;;7.51;54.92
75945;BME280;64628;50.104;14.614;2022-10-26T05:35:09;98966.11;;;7.56;54.92
75945;BME280;64628;50.104;14.614;2022-10-26T05:37:34;98969.06;;;7.55;54.84
75945;BME280;64628;50.104;14.614;2022-10-26T05:40:00;98971.20;;;7.76;54.87
75945;BME280;64628;50.104;14.614;2022-10-26T05:42:25;98972.86;;;7.54;55.06
75945;BME280;64628;50.104;14.614;2022-10-26T05:44:50;98972.54;;;7.60;55.20
75945;BME280;64628;50.104;14.614;2022-10-26T05:47:16;98969.43;;;7.67;55.27
75945;BME280;64628;50.104;14.614;2022-10-26T05:49:42;98971.21;;;7.53;55.30
75945;BME280;64628;50.104;14.614;2022-10-26T05:52:07;98972.44;;;7.72;55.04
75945;BME280;64628;50.104;14.614;2022-10-26T05:54:33;98977.87;;;7.82;55.02
75945;BME280;64628;50.104;14.614;2022-10-26T05:56:59;98982.86;;;7.93;54.91
75945;BME280;64628;50.104;14.614;2022-10-26T05:59:25;98989.07;;;8.39;54.95
75945;BME280;64628;50.104;14.614;2022-10-26T06:01:58;98984.67;;;8.34;55.00
75945;BME280;64628;50.104;14.614;2022-10-26T06:04:24;98989.09;;;8.28;54.80
75945;BME280;64628;50.104;14.614;2022-10-26T06:06:50;98990.09;;;8.43;54.73
75945;BME280;64628;50.104;14.614;2022-10-26T06:09:07;98989.20;;;8.78;54.69
75945;BME280;64628;50.104;14.614;2022-10-26T06:11:31;98991.73;;;8.59;54.83
75945;BME280;64628;50.104;14.614;2022-10-26T06:13:56;98998.94;;;8.97;54.68
75945;BME280;64628;50.104;14.614;2022-10-26T06:16:31;99000.42;;;9.19;54.82
75945;BME280;64628;50.104;14.614;2022-10-26T06:18:52;98995.98;;;9.39;55.21
75945;BME280;64628;50.104;14.614;2022-10-26T06:21:24;98998.88;;;9.21;55.28
75945;BME280;64628;50.104;14.614;2022-10-26T06:23:48;98994.53;;;9.46;55.13
75945;BME280;64628;50.104;14.614;2022-10-26T06:26:11;98995.91;;;9.88;54.88
75945;BME280;64628;50.104;14.614;2022-10-26T06:28:35;98996.00;;;9.77;54.65
75945;BME280;64628;50.104;14.614;2022-10-26T06:30:56;98995.02;;;9.88;54.76
75945;BME280;64628;50.104;14.614;2022-10-26T06:33:21;98995.40;;;10.04;54.62
75945;BME280;64628;50.104;14.614;2022-10-26T06:35:52;98998.34;;;10.17;54.48
75945;BME280;64628;50.104;14.614;2022-10-26T06:38:13;98999.26;;;10.05;54.43
75945;BME280;64628;50.104;14.614;2022-10-26T06:40:39;98999.35;;;9.92;54.29
75945;BME280;64628;50.104;14.614;2022-10-26T06:43:03;99001.29;;;10.28;54.13
75945;BME280;64628;50.104;14.614;2022-10-26T06:45:28;99000.57;;;10.44;53.99
75945;BME280;64628;50.104;14.614;2022-10-26T06:47:58;98999.62;;;10.36;53.65
75945;BME280;64628;50.104;14.614;2022-10-26T06:50:27;99004.87;;;10.81;53.69
75945;BME280;64628;50.104;14.614;2022-10-26T06:52:51;99008.40;;;10.91;53.03
75945;BME280;64628;50.104;14.614;2022-10-26T06:55:14;99010.67;;;10.32;53.09
75945;BME280;64628;50.104;14.614;2022-10-26T06:57:35;99008.95;;;10.81;52.79
75945;BME280;64628;50.104;14.614;2022-10-26T07:00:02;99008.42;;;11.18;52.69
75945;BME280;64628;50.104;14.614;2022-10-26T07:02:25;99005.86;;;11.24;52.70
75945;BME280;64628;50.104;14.614;2022-10-26T07:04:49;99010.05;;;10.90;52.57
75945;BME280;64628;50.104;14.614;2022-10-26T07:07:19;99014.36;;;11.06;52.60
75945;BME280;64628;50.104;14.614;2022-10-26T07:09:40;99013.07;;;11.32;52.34
75945;BME280;64628;50.104;14.614;2022-10-26T07:12:07;99019.46;;;11.35;51.67
75945;BME280;64628;50.104;14.614;2022-10-26T07:14:31;99018.05;;;11.90;51.67
75945;BME280;64628;50.104;14.614;2022-10-26T07:16:56;99021.61;;;12.30;51.13
75945;BME280;64628;50.104;14.614;2022-10-26T07:19:22;99014.95;;;12.56;50.59
75945;BME280;64628;50.104;14.614;2022-10-26T07:21:48;99017.14;;;13.09;49.23
75945;BME280;64628;50.104;14.614;2022-10-26T07:24:14;99013.24;;;13.57;48.55
75945;BME280;64628;50.104;14.614;2022-10-26T07:26:39;99013.98;;;13.90;48.08
75945;BME280;64628;50.104;14.614;2022-10-26T07:29:04;99012.89;;;13.94;48.12
75945;BME280;64628;50.104;14.614;2022-10-26T07:31:29;99019.34;;;14.39;47.73
75945;BME280;64628;50.104;14.614;2022-10-26T07:33:55;99021.58;;;14.79;46.80
75945;BME280;64628;50.104;14.614;2022-10-26T07:36:21;99025.08;;;15.62;44.73
75945;BME280;64628;50.104;14.614;2022-10-26T07:38:46;99029.87;;;15.35;43.58
75945;BME280;64628;50.104;14.614;2022-10-26T07:41:12;99033.51;;;15.59;44.54
75945;BME280;64628;50.104;14.614;2022-10-26T07:43:38;99034.35;;;15.43;45.05
75945;BME280;64628;50.104;14.614;2022-10-26T07:46:05;99034.32;;;15.64;44.97
75945;BME280;64628;50.104;14.614;2022-10-26T07:48:30;99035.07;;;15.81;44.37
75945;BME280;64628;50.104;14.614;2022-10-26T07:50:55;99033.88;;;15.84;44.16
75945;BME280;64628;50.104;14.614;2022-10-26T07:53:20;99033.03;;;15.84;44.12
75945;BME280;64628;50.104;14.614;2022-10-26T07:55:52;99032.72;;;15.91;44.17
75945;BME280;64628;50.104;14.614;2022-10-26T07:58:10;99035.73;;;16.07;43.89
75945;BME280;64628;50.104;14.614;2022-10-26T08:00:36;99035.89;;;16.08;42.80
75945;BME280;64628;50.104;14.614;2022-10-26T08:03:01;99034.62;;;16.52;43.12
75945;BME280;64628;50.104;14.614;2022-10-26T08:05:26;99037.84;;;16.15;42.78
75945;BME280;64628;50.104;14.614;2022-10-26T08:07:52;99041.44;;;15.80;43.87
75945;BME280;64628;50.104;14.614;2022-10-26T08:10:17;99042.80;;;15.81;44.37
75945;BME280;64628;50.104;14.614;2022-10-26T08:12:43;99046.45;;;16.45;44.28
75945;BME280;64628;50.104;14.614;2022-10-26T08:15:09;99049.23;;;16.10;44.55
75945;BME280;64628;50.104;14.614;2022-10-26T08:17:34;99051.55;;;16.01;44.29
75945;BME280;64628;50.104;14.614;2022-10-26T08:19:59;99053.69;;;16.16;44.22
75945;BME280;64628;50.104;14.614;2022-10-26T08:22:25;99054.32;;;15.72;44.32
75945;BME280;64628;50.104;14.614;2022-10-26T08:24:50;99054.68;;;15.42;44.04
75945;BME280;64628;50.104;14.614;2022-10-26T08:27:15;99058.32;;;15.40;44.28
75945;BME280;64628;50.104;14.614;2022-10-26T08:29:43;99058.27;;;15.46;44.30
75945;BME280;64628;50.104;14.614;2022-10-26T08:32:07;99056.84;;;15.46;44.66
75945;BME280;64628;50.104;14.614;2022-10-26T08:34:32;99061.45;;;14.95;44.87
75945;BME280;64628;50.104;14.614;2022-10-26T08:36:57;99062.40;;;15.15;45.01
75945;BME280;64628;50.104;14.614;2022-10-26T08:39:23;99066.33;;;15.08;45.06
75945;BME280;64628;50.104;14.614;2022-10-26T08:41:49;99071.84;;;15.31;44.94
75945;BME280;64628;50.104;14.614;2022-10-26T08:44:21;99074.36;;;14.90;45.04
75945;BME280;64628;50.104;14.614;2022-10-26T08:46:43;99069.66;;;14.80;44.90
75945;BME280;64628;50.104;14.614;2022-10-26T08:49:13;99068.78;;;15.02;44.99
75945;BME280;64628;50.104;14.614;2022-10-26T08:51:33;99067.10;;;14.85;44.97
75945;BME280;64628;50.104;14.614;2022-10-26T08:53:58;99067.54;;;15.40;45.42
75945;BME280;64628;50.104;14.614;2022-10-26T08:56:24;99068.39;;;15.32;45.02
75945;BME280;64628;50.104;14.614;2022-10-26T08:58:53;99065.52;;;15.31;45.12
75945;BME280;64628;50.104;14.614;2022-10-26T09:01:13;99065.08;;;15.16;44.91
75945;BME280;64628;50.104;14.614;2022-10-26T09:03:39;99065.04;;;15.01;44.64
75945;BME280;64628;50.104;14.614;2022-10-26T09:06:14;99066.88;;;15.46;44.43
75945;BME280;64628;50.104;14.614;2022-10-26T09:08:34;99070.97;;;15.46;44.29
75945;BME280;64628;50.104;14.614;2022-10-26T09:11:01;99068.34;;;15.81;43.79
75945;BME280;64628;50.104;14.614;2022-10-26T09:13:27;99069.93;;;15.74;44.02
75945;BME280;64628;50.104;14.614;2022-10-26T09:15:56;99070.34;;;15.69;43.99
75945;BME280;64628;50.104;14.614;2022-10-26T09:18:19;99071.14;;;15.71;43.96
75945;BME280;64628;50.104;14.614;2022-10-26T09:20:47;99072.15;;;16.13;43.35
75945;BME280;64628;50.104;14.614;2022-10-26T09:23:09;99071.00;;;16.79;42.76
75945;BME280;64628;50.104;14.614;2022-10-26T09:25:33;99072.57;;;16.46;42.37
75945;BME280;64628;50.104;14.614;2022-10-26T09:27:56;99078.45;;;16.55;42.08
75945;BME280;64628;50.104;14.614;2022-10-26T09:30:20;99080.81;;;16.81;41.72
75945;BME280;64628;50.104;14.614;2022-10-26T09:32:47;99086.36;;;17.15;41.34
75945;BME280;64628;50.104;14.614;2022-10-26T09:35:14;99088.29;;;17.52;40.79
75945;BME280;64628;50.104;14.614;2022-10-26T09:37:39;99091.58;;;17.57;40.61
75945;BME280;64628;50.104;14.614;2022-10-26T09:40:10;99096.83;;;17.45;41.01
75945;BME280;64628;50.104;14.614;2022-10-26T09:42:32;99096.90;;;17.52;40.90
75945;BME280;64628;50.104;14.614;2022-10-26T09:44:54;99095.81;;;17.61;40.69
75945;BME280;64628;50.104;14.614;2022-10-26T09:47:28;99090.86;;;18.31;39.37
75945;BME280;64628;50.104;14.614;2022-10-26T09:49:45;99091.11;;;18.98;38.43
75945;BME280;64628;50.104;14.614;2022-10-26T09:52:07;99091.29;;;19.96;37.22
75945;BME280;64628;50.104;14.614;2022-10-26T09:54:33;99093.55;;;20.87;36.00
75945;BME280;64628;50.104;14.614;2022-10-26T09:57:00;99093.58;;;21.45;34.94
75945;BME280;64628;50.104;14.614;2022-10-26T09:59:33;99092.38;;;21.87;33.39
75945;BME280;64628;50.104;14.614;2022-10-26T10:01:49;99094.26;;;22.07;33.20
75945;BME280;64628;50.104;14.614;2022-10-26T10:04:21;99092.94;;;21.92;33.72
75945;BME280;64628;50.104;14.614;2022-10-26T10:06:40;99092.91;;;21.61;34.16
75945;BME280;64628;50.104;14.614;2022-10-26T10:09:08;99087.13;;;21.39;33.95
75945;BME280;64628;50.104;14.614;2022-10-26T10:11:36;99086.45;;;21.59;34.45
75945;BME280;64628;50.104;14.614;2022-10-26T10:14:04;99081.99;;;21.02;35.22
75945;BME280;64628;50.104;14.614;2022-10-26T10:16:23;99081.59;;;20.64;35.92
75945;BME280;64628;50.104;14.614;2022-10-26T10:18:53;99084.68;;;20.05;36.84
75945;BME280;64628;50.104;14.614;2022-10-26T10:21:13;99080.13;;;19.83;37.32
75945;BME280;64628;50.104;14.614;2022-10-26T10:23:46;99080.46;;;19.09;38.13
75945;BME280;64628;50.104;14.614;2022-10-26T10:26:09;99075.76;;;18.32;38.39
75945;BME280;64628;50.104;14.614;2022-10-26T10:28:29;99077.27;;;17.84;40.06
75945;BME280;64628;50.104;14.614;2022-10-26T10:30:55;99078.03;;;17.92;40.91
75945;BME280;64628;50.104;14.614;2022-10-26T10:33:19;99080.89;;;17.51;41.35
75945;BME280;64628;50.104;14.614;2022-10-26T10:35:48;99076.02;;;17.40;41.31
75945;BME280;64628;50.104;14.614;2022-10-26T10:38:15;99072.77;;;17.41;41.90
75945;BME280;64628;50.104;14.614;2022-10-26T10:40:36;99075.96;;;17.48;42.47
75945;BME280;64628;50.104;14.614;2022-10-26T10:43:05;99073.64;;;17.30;42.50
75945;BME280;64628;50.104;14.614;2022-10-26T10:45:28;99078.84;;;17.16;43.18
75945;BME280;64628;50.104;14.614;2022-10-26T10:48:01;99082.87;;;17.41;42.34
75945;BME280;64628;50.104;14.614;2022-10-26T10:50:19;99083.83;;;17.67;42.37
75945;BME280;64628;50.104;14.614;2022-10-26T10:52:43;99086.43;;;17.68;43.24
75945;BME280;64628;50.104;14.614;2022-10-26T10:55:16;99085.67;;;17.80;42.56
75945;BME280;64628;50.104;14.614;2022-10-26T10:57:41;99083.83;;;17.84;42.49
75945;BME280;64628;50.104;14.614;2022-10-26T11:00:04;99082.51;;;17.93;42.40
75945;BME280;64628;50.104;14.614;2022-10-26T11:04:59;99083.80;;;17.43;43.07
75945;BME280;64628;50.104;14.614;2022-10-26T11:07:20;99081.56;;;17.55;44.10
75945;BME280;64628;50.104;14.614;2022-10-26T11:09:42;99085.06;;;17.22;44.35
75945;BME280;64628;50.104;14.614;2022-10-26T11:12:12;99083.86;;;16.85;45.47
75945;BME280;64628;50.104;14.614;2022-10-26T11:14:36;99079.15;;;16.77;46.01
75945;BME280;64628;50.104;14.614;2022-10-26T11:17:03;99058.48;;;16.29;46.86
75945;BME280;64628;50.104;14.614;2022-10-26T11:19:24;99043.58;;;15.87;47.77
75945;BME280;64628;50.104;14.614;2022-10-26T11:21:51;99032.47;;;15.92;48.31
75945;BME280;64628;50.104;14.614;2022-10-26T11:24:17;99035.79;;;16.11;48.29
75945;BME280;64628;50.104;14.614;2022-10-26T11:26:42;99037.30;;;16.07;48.47
75945;BME280;64628;50.104;14.614;2022-10-26T11:29:10;99036.07;;;15.84;48.69
75945;BME280;64628;50.104;14.614;2022-10-26T11:31:35;99039.46;;;15.86;48.47
75945;BME280;64628;50.104;14.614;2022-10-26T11:34:07;99042.10;;;15.77;48.91
75945;BME280;64628;50.104;14.614;2022-10-26T11:36:21;99046.91;;;15.57;48.50
75945;BME280;64628;50.104;14.614;2022-10-26T11:38:48;99046.93;;;16.15;47.54
75945;BME280;64628;50.104;14.614;2022-10-26T11:41:16;99051.39;;;15.47;47.76
75945;BME280;64628;50.104;14.614;2022-10-26T11:43:38;99051.95;;;15.83;47.63
75945;BME280;64628;50.104;14.614;2022-10-26T11:46:04;99053.56;;;15.77;46.93
75945;BME280;64628;50.104;14.614;2022-10-26T11:48:33;99056.93;;;15.58;47.47
75945;BME280;64628;50.104;14.614;2022-10-26T11:50:55;99064.34;;;16.05;47.18
75945;BME280;64628;50.104;14.614;2022-10-26T11:53:23;99076.26;;;16.13;46.73
75945;BME280;64628;50.104;14.614;2022-10-26T11:55:48;99087.46;;;16.06;46.80
75945;BME280;64628;50.104;14.614;2022-10-26T11:58:15;99094.38;;;16.02;46.74
75945;BME280;64628;50.104;14.614;2022-10-26T12:00:45;99095.52;;;16.14;47.25
75945;BME280;64628;50.104;14.614;2022-10-26T12:03:10;99093.94;;;16.08;47.17
75945;BME280;64628;50.104;14.614;2022-10-26T12:05:35;99094.75;;;15.58;47.88
75945;BME280;64628;50.104;14.614;2022-10-26T12:08:00;99090.65;;;15.83;47.69
75945;BME280;64628;50.104;14.614;2022-10-26T12:10:26;99087.14;;;15.73;48.40
75945;BME280;64628;50.104;14.614;2022-10-26T12:12:49;99088.73;;;15.57;48.84
75945;BME280;64628;50.104;14.614;2022-10-26T12:15:20;99084.73;;;16.02;48.46
75945;BME280;64628;50.104;14.614;2022-10-26T12:17:42;99080.52;;;16.04;48.35
75945;BME280;64628;50.104;14.614;2022-10-26T12:20:05;99080.47;;;16.39;47.59
75945;BME280;64628;50.104;14.614;2022-10-26T12:22:28;99082.68;;;16.29;48.38
75945;BME280;64628;50.104;14.614;2022-10-26T12:27:29;99075.83;;;16.67;47.57
75945;BME280;64628;50.104;14.614;2022-10-26T12:29:46;99076.34;;;16.26;47.14
75945;BME280;64628;50.104;14.614;2022-10-26T12:37:09;99082.10;;;16.23;47.81
75945;BME280;64628;50.104;14.614;2022-10-26T12:39:28;99082.02;;;16.30;48.28
75945;BME280;64628;50.104;14.614;2022-10-26T12:41:56;99087.02;;;16.43;48.52
75945;BME280;64628;50.104;14.614;2022-10-26T12:44:32;99089.03;;;16.48;47.92
75945;BME280;64628;50.104;14.614;2022-10-26T12:46:40;99092.49;;;16.74;47.09
75945;BME280;64628;50.104;14.614;2022-10-26T12:51:41;99093.30;;;16.96;46.88
75945;BME280;64628;50.104;14.614;2022-10-26T12:54:01;99089.50;;;16.76;46.72
75945;BME280;64628;50.104;14.614;2022-10-26T12:56:26;99087.48;;;17.06;46.43
75945;BME280;64628;50.104;14.614;2022-10-26T12:58:59;99084.74;;;17.14;45.99
75945;BME280;64628;50.104;14.614;2022-10-26T13:01:30;99083.63;;;17.05;46.58